createdAt,value
2018-11-29T00:03:48.890Z,91.50
2018-11-29T00:08:52.019Z,91.40
2018-11-29T00:13:55.120Z,91.40
2018-11-29T00:18:58.226Z,91.40
2018-11-29T00:24:01.335Z,91.40
2018-11-29T00:29:05.235Z,91.40
2018-11-29T00:34:08.357Z,91.40
2018-11-29T00:39:11.481Z,91.70
2018-11-29T00:44:14.578Z,91.70
2018-11-29T00:49:17.706Z,91.40
2018-11-29T00:54:20.824Z,91.40
2018-11-29T00:59:23.950Z,91.40
2018-11-29T01:04:27.234Z,91.50
2018-11-29T01:09:30.363Z,91.40
2018-11-29T01:14:33.475Z,91.40
2018-11-29T01:19:36.582Z,91.40
2018-11-29T01:24:39.702Z,91.40
2018-11-29T01:29:42.814Z,91.50
2018-11-29T01:34:45.929Z,91.40
2018-11-29T01:39:49.078Z,91.50
2018-11-29T01:44:52.225Z,91.40
2018-11-29T01:49:55.319Z,91.50
2018-11-29T01:54:58.434Z,91.50
2018-11-29T02:00:01.561Z,91.40
2018-11-29T02:05:06.010Z,91.50
2018-11-29T02:10:18.389Z,91.70
2018-11-29T02:15:21.486Z,91.40
2018-11-29T02:20:24.648Z,91.40
2018-11-29T02:25:27.788Z,91.40
2018-11-29T02:30:30.903Z,91.40
2018-11-29T02:35:34.899Z,91.40
2018-11-29T02:40:38.098Z,91.40
2018-11-29T02:45:41.211Z,91.40
2018-11-29T02:50:44.323Z,91.40
2018-11-29T02:55:47.454Z,91.40
2018-11-29T03:00:50.570Z,91.40
2018-11-29T03:05:53.682Z,91.20
2018-11-29T03:10:56.785Z,91.50
2018-11-29T03:15:59.907Z,91.20
2018-11-29T03:21:03.209Z,91.40
2018-11-29T03:26:06.585Z,91.50
2018-11-29T03:31:09.711Z,91.10
2018-11-29T03:36:12.826Z,91.10
2018-11-29T03:41:15.939Z,91.10
2018-11-29T03:46:19.044Z,91.20
2018-11-29T03:51:22.145Z,91.10
2018-11-29T03:56:25.262Z,91.20
2018-11-29T04:01:28.366Z,91.20
2018-11-29T04:06:31.483Z,91.20
2018-11-29T04:11:34.695Z,91.20
2018-11-29T04:16:37.858Z,91.20
2018-11-29T04:21:40.968Z,91.20
2018-11-29T04:26:44.085Z,91.20
2018-11-29T04:31:47.232Z,91.30
2018-11-29T04:36:50.329Z,91.30
2018-11-29T04:41:53.451Z,91.20
2018-11-29T04:46:56.575Z,91.20
2018-11-29T04:51:59.679Z,91.10
2018-11-29T04:57:03.059Z,91.10
2018-11-29T05:02:06.471Z,91.10
2018-11-29T05:07:09.589Z,91.00
2018-11-29T05:12:12.691Z,91.10
2018-11-29T05:17:15.796Z,91.40
2018-11-29T05:22:18.938Z,91.10
2018-11-29T05:27:22.054Z,91.00
2018-11-29T05:32:25.170Z,91.00
2018-11-29T05:37:28.274Z,91.00
2018-11-29T05:42:31.462Z,91.00
2018-11-29T05:47:34.566Z,90.90
2018-11-29T05:52:37.670Z,90.90
2018-11-29T05:57:40.774Z,90.90
2018-11-29T06:02:44.074Z,91.00
2018-11-29T06:07:47.186Z,91.00
2018-11-29T06:12:50.298Z,91.20
2018-11-29T06:17:53.402Z,90.90
2018-11-29T06:22:56.527Z,90.90
2018-11-29T06:27:59.642Z,90.80
2018-11-29T06:33:03.683Z,90.80
2018-11-29T06:38:06.988Z,90.70
2018-11-29T06:43:10.104Z,90.80
2018-11-29T06:48:13.230Z,90.70
2018-11-29T06:53:21.714Z,90.70
2018-11-29T06:58:24.847Z,90.70
2018-11-29T07:03:28.943Z,90.70
2018-11-29T07:08:31.087Z,90.70
2018-11-29T07:13:34.203Z,90.60
2018-11-29T07:18:37.307Z,90.60
2018-11-29T07:23:40.410Z,90.60
2018-11-29T07:28:43.543Z,90.50
2018-11-29T07:33:46.651Z,90.90
2018-11-29T07:38:49.759Z,90.50
2018-11-29T07:43:52.876Z,90.50
2018-11-29T07:48:55.995Z,90.50
2018-11-29T07:53:59.108Z,90.60
2018-11-29T07:59:02.227Z,90.50
2018-11-29T08:04:05.719Z,90.50
2018-11-29T08:09:08.839Z,90.50
2018-11-29T08:14:11.968Z,90.40
2018-11-29T08:19:15.103Z,90.60
2018-11-29T08:24:18.232Z,90.60
2018-11-29T08:29:21.351Z,90.20
2018-11-29T08:34:24.480Z,89.80
2018-11-29T08:39:27.655Z,89.70
2018-11-29T08:44:30.788Z,88.80
2018-11-29T08:49:33.904Z,89.50
2018-11-29T08:54:37.014Z,88.10
2018-11-29T08:59:40.134Z,88.10
2018-11-29T09:04:43.250Z,88.70
2018-11-29T09:09:46.358Z,88.40
2018-11-29T09:14:49.463Z,87.30
2018-11-29T09:19:52.569Z,88.80
2018-11-29T09:24:55.678Z,87.90
2018-11-29T09:29:58.787Z,86.30
2018-11-29T09:35:01.935Z,86.70
2018-11-29T09:40:07.962Z,86.20
2018-11-29T09:45:20.802Z,84.90
2018-11-29T09:50:24.778Z,84.00
2018-11-29T09:55:27.997Z,84.60
2018-11-29T10:00:31.690Z,84.10
2018-11-29T10:05:34.818Z,83.70
2018-11-29T10:10:37.931Z,84.60
2018-11-29T10:15:41.890Z,81.70
2018-11-29T10:20:45.005Z,81.80
2018-11-29T10:25:48.148Z,83.90
2018-11-29T10:30:55.134Z,83.50
2018-11-29T10:35:59.235Z,79.40
2018-11-29T10:41:01.427Z,80.80
2018-11-29T10:46:04.563Z,81.80
2018-11-29T10:51:07.663Z,79.10
2018-11-29T10:56:10.767Z,80.90
2018-11-29T11:01:19.418Z,79.50
2018-11-29T11:06:22.527Z,77.70
2018-11-29T11:11:25.634Z,79.00
2018-11-29T11:16:28.759Z,77.80
2018-11-29T11:21:31.867Z,79.50
2018-11-29T11:26:34.976Z,79.40
2018-11-29T11:31:38.755Z,75.80
2018-11-29T11:36:41.859Z,75.50
2018-11-29T11:41:44.983Z,75.50
2018-11-29T11:46:48.095Z,75.80
2018-11-29T11:51:51.219Z,75.60
2018-11-29T11:56:54.327Z,76.80
2018-11-29T12:01:57.433Z,74.60
2018-11-29T12:07:00.539Z,75.60
2018-11-29T12:12:03.646Z,74.80
2018-11-29T12:17:06.766Z,73.10
2018-11-29T12:22:09.878Z,72.10
2018-11-29T12:27:12.991Z,73.10
2018-11-29T12:32:16.108Z,73.40
2018-11-29T12:37:19.223Z,72.60
2018-11-29T12:42:22.336Z,70.90
2018-11-29T12:47:25.437Z,70.60
2018-11-29T12:52:30.887Z,70.70
2018-11-29T12:57:34.706Z,70.30
2018-11-29T13:02:37.886Z,70.50
2018-11-29T13:07:43.375Z,72.20
2018-11-29T13:12:44.169Z,72.20
2018-11-29T13:17:47.365Z,70.80
2018-11-29T13:22:50.470Z,70.90
2018-11-29T13:27:53.700Z,70.10
2018-11-29T13:32:57.803Z,70.00
2018-11-29T13:38:03.995Z,70.10
2018-11-29T13:43:07.107Z,70.70
2018-11-29T13:48:15.625Z,71.50
2018-11-29T13:53:18.751Z,71.70
2018-11-29T13:58:21.865Z,72.00
2018-11-29T14:03:24.978Z,71.50
2018-11-29T14:08:28.091Z,72.20
2018-11-29T14:13:31.206Z,71.60
2018-11-29T14:18:34.318Z,71.40
2018-11-29T14:23:37.430Z,71.60
2018-11-29T14:28:40.573Z,72.40
2018-11-29T14:33:43.735Z,73.40
2018-11-29T14:38:46.883Z,74.00
2018-11-29T14:43:50.050Z,74.40
2018-11-29T14:48:53.166Z,75.10
2018-11-29T14:53:56.282Z,75.20
2018-11-29T14:58:59.500Z,75.30
2018-11-29T15:04:02.578Z,75.50
2018-11-29T15:09:07.590Z,75.80
2018-11-29T15:14:10.710Z,75.70
2018-11-29T15:19:13.818Z,76.20
2018-11-29T15:24:16.957Z,76.70
2018-11-29T15:29:20.091Z,77.00
2018-11-29T15:34:23.230Z,77.20
2018-11-29T15:39:26.362Z,77.70
2018-11-29T15:44:29.483Z,77.90
2018-11-29T15:49:32.618Z,78.20
2018-11-29T15:54:35.714Z,78.30
2018-11-29T15:59:38.827Z,78.70
2018-11-29T16:04:41.974Z,78.90
2018-11-29T16:09:45.091Z,79.00
2018-11-29T16:14:48.234Z,79.30
2018-11-29T16:19:51.374Z,79.50
2018-11-29T16:24:54.505Z,79.70
2018-11-29T16:29:57.647Z,79.80
2018-11-29T16:35:00.783Z,80.10
2018-11-29T16:40:04.003Z,80.40
2018-11-29T16:45:10.756Z,81.30
2018-11-29T16:50:14.895Z,80.80
2018-11-29T16:55:18.160Z,80.90
2018-11-29T17:00:21.922Z,81.00
2018-11-29T17:05:25.245Z,81.30
2018-11-29T17:10:28.353Z,81.60
2018-11-29T17:15:31.468Z,81.80
2018-11-29T17:20:35.137Z,82.10
2018-11-29T17:25:38.263Z,82.40
2018-11-29T17:30:41.434Z,82.50
2018-11-29T17:35:44.537Z,82.70
2018-11-29T17:40:47.654Z,82.70
2018-11-29T17:45:50.771Z,82.80
2018-11-29T17:50:53.883Z,82.90
2018-11-29T17:55:57.021Z,82.90
2018-11-29T18:01:00.131Z,83.10
2018-11-29T18:06:03.250Z,83.20
2018-11-29T18:11:07.446Z,83.30
2018-11-29T18:16:10.557Z,83.40
2018-11-29T18:21:13.693Z,83.60
2018-11-29T18:26:16.794Z,83.70
2018-11-29T18:31:19.926Z,83.60
2018-11-29T18:36:23.582Z,83.50
2018-11-29T18:41:26.187Z,83.30
2018-11-29T18:46:29.335Z,83.50
2018-11-29T18:51:32.454Z,83.70
2018-11-29T18:56:35.562Z,84.00
2018-11-29T19:01:38.739Z,83.90
2018-11-29T19:06:41.854Z,84.10
2018-11-29T19:11:44.982Z,84.30
2018-11-29T19:16:48.344Z,84.30
2018-11-29T19:21:51.458Z,84.50
2018-11-29T19:26:54.631Z,84.50
2018-11-29T19:31:57.747Z,84.50
2018-11-29T19:37:00.935Z,84.60
2018-11-29T19:42:04.055Z,84.70
2018-11-29T19:47:07.163Z,84.80
2018-11-29T19:52:10.299Z,85.10
2018-11-29T19:57:13.574Z,85.20
2018-11-29T20:02:16.697Z,85.30
2018-11-29T20:07:19.797Z,85.20
2018-11-29T20:12:22.906Z,85.30
2018-11-29T20:17:26.026Z,86.00
2018-11-29T20:22:29.311Z,85.40
2018-11-29T20:27:32.423Z,85.50
2018-11-29T20:32:35.563Z,85.60
2018-11-29T20:37:38.810Z,85.60
2018-11-29T20:42:41.921Z,85.60
2018-11-29T20:47:45.186Z,85.60
2018-11-29T20:52:49.198Z,85.60
2018-11-29T20:57:52.385Z,85.90
2018-11-29T21:02:55.506Z,85.70
2018-11-29T21:08:01.501Z,85.80
2018-11-29T21:13:06.111Z,85.80
2018-11-29T21:18:10.415Z,85.90
2018-11-29T21:23:14.942Z,85.80
2018-11-29T21:28:18.085Z,85.90
2018-11-29T21:33:21.219Z,86.00
2018-11-29T21:38:24.379Z,86.00
2018-11-29T21:43:27.485Z,86.00
2018-11-29T21:48:30.608Z,85.90
2018-11-29T21:53:33.718Z,85.40
2018-11-29T21:58:36.830Z,85.60
2018-11-29T22:03:39.946Z,85.60
2018-11-29T22:08:43.063Z,85.50
2018-11-29T22:13:46.166Z,85.50
2018-11-29T22:18:49.299Z,85.50
2018-11-29T22:23:52.429Z,85.40
2018-11-29T22:28:55.531Z,85.00
2018-11-29T22:33:58.638Z,85.10
2018-11-29T22:39:01.746Z,85.40
2018-11-29T22:44:05.142Z,85.40
2018-11-29T22:49:08.263Z,85.60
2018-11-29T22:54:11.386Z,85.00
2018-11-29T22:59:15.391Z,85.20
2018-11-29T23:04:18.548Z,85.20
2018-11-29T23:09:21.901Z,85.30
2018-11-29T23:14:24.729Z,85.20
2018-11-29T23:19:28.183Z,85.40
2018-11-29T23:24:31.255Z,85.60
2018-11-29T23:29:34.408Z,85.50
2018-11-29T23:34:37.511Z,85.60
2018-11-29T23:39:40.655Z,85.60
2018-11-29T23:44:43.771Z,85.50
2018-11-29T23:49:46.893Z,85.40
2018-11-29T23:54:49.998Z,85.30
2018-11-29T23:59:53.098Z,85.30
